Aviation Digital Data Service (ADDS)

Output produced by METARs form (0017 UTC 26 June 2017)
found at http://aviationweather.gov/adds/metars/
 
KGON 252337Z 2600/2624 23007KT P6SM SCT070 
     FM260100 24007KT P6SM VCSH SCT070 
     FM260300 26006KT P6SM SCT050 
     FM260500 29006KT P6SM SCT050 
     FM261400 26007KT P6SM FEW050 
     FM261700 23009KT P6SM FEW050